sensor_id;sensor_type;location;lat;lon;timestamp;pressure;altitude;pressure_sealevel;temperature;humidity
54924;BME280;40825;52.270;20.984;2023-05-25T00:00:26;100917.88;;;14.12;85.85
54924;BME280;40825;52.270;20.984;2023-05-25T00:03:13;100915.10;;;14.07;85.83
54924;BME280;40825;52.270;20.984;2023-05-25T00:05:39;100911.49;;;14.03;86.27
54924;BME280;40825;52.270;20.984;2023-05-25T00:08:05;100909.70;;;13.99;86.88
54924;BME280;40825;52.270;20.984;2023-05-25T00:10:31;100910.93;;;13.95;87.37
54924;BME280;40825;52.270;20.984;2023-05-25T00:12:56;100913.42;;;13.91;87.75
54924;BME280;40825;52.270;20.984;2023-05-25T00:15:22;100914.56;;;13.85;87.12
54924;BME280;40825;52.270;20.984;2023-05-25T00:17:47;100912.64;;;13.82;87.43
54924;BME280;40825;52.270;20.984;2023-05-25T00:20:13;100913.91;;;13.78;87.14
54924;BME280;40825;52.270;20.984;2023-05-25T00:22:42;100915.80;;;13.74;87.16
54924;BME280;40825;52.270;20.984;2023-05-25T00:25:09;100921.64;;;13.70;87.88
54924;BME280;40825;52.270;20.984;2023-05-25T00:27:35;100921.98;;;13.66;87.98
54924;BME280;40825;52.270;20.984;2023-05-25T00:30:01;100922.17;;;13.62;88.51
54924;BME280;40825;52.270;20.984;2023-05-25T00:32:26;100923.19;;;13.59;89.20
54924;BME280;40825;52.270;20.984;2023-05-25T00:34:53;100923.29;;;13.56;87.56
54924;BME280;40825;52.270;20.984;2023-05-25T00:37:19;100924.92;;;13.52;89.03
54924;BME280;40825;52.270;20.984;2023-05-25T00:39:44;100917.37;;;13.46;88.23
54924;BME280;40825;52.270;20.984;2023-05-25T00:42:10;100918.64;;;13.44;87.87
54924;BME280;40825;52.270;20.984;2023-05-25T00:44:35;100917.42;;;13.43;90.46
54924;BME280;40825;52.270;20.984;2023-05-25T00:47:01;100920.91;;;13.41;90.04
54924;BME280;40825;52.270;20.984;2023-05-25T00:49:35;100921.19;;;13.39;91.18
54924;BME280;40825;52.270;20.984;2023-05-25T00:52:01;100923.39;;;13.37;90.65
54924;BME280;40825;52.270;20.984;2023-05-25T00:54:27;100922.55;;;13.34;90.87
54924;BME280;40825;52.270;20.984;2023-05-25T00:57:00;100922.38;;;13.32;90.56
54924;BME280;40825;52.270;20.984;2023-05-25T00:59:36;100927.86;;;13.31;91.54
54924;BME280;40825;52.270;20.984;2023-05-25T01:02:09;100929.88;;;13.29;92.32
54924;BME280;40825;52.270;20.984;2023-05-25T01:04:40;100930.88;;;13.30;91.46
54924;BME280;40825;52.270;20.984;2023-05-25T01:07:11;100932.45;;;13.31;89.74
54924;BME280;40825;52.270;20.984;2023-05-25T01:09:43;100935.50;;;13.33;89.73
54924;BME280;40825;52.270;20.984;2023-05-25T01:12:10;100940.04;;;13.33;89.82
54924;BME280;40825;52.270;20.984;2023-05-25T01:14:38;100941.16;;;13.36;90.35
54924;BME280;40825;52.270;20.984;2023-05-25T01:17:07;100935.93;;;13.36;89.60
54924;BME280;40825;52.270;20.984;2023-05-25T01:19:34;100936.92;;;13.37;88.83
54924;BME280;40825;52.270;20.984;2023-05-25T01:24:55;100939.38;;;13.39;91.42
54924;BME280;40825;52.270;20.984;2023-05-25T01:27:30;100941.08;;;13.38;89.77
54924;BME280;40825;52.270;20.984;2023-05-25T01:30:01;100940.73;;;13.39;90.53
54924;BME280;40825;52.270;20.984;2023-05-25T01:32:27;100933.71;;;13.43;91.26
54924;BME280;40825;52.270;20.984;2023-05-25T01:34:54;100934.67;;;13.45;92.28
54924;BME280;40825;52.270;20.984;2023-05-25T01:37:21;100936.06;;;13.45;91.01
54924;BME280;40825;52.270;20.984;2023-05-25T01:39:49;100932.04;;;13.46;92.21
54924;BME280;40825;52.270;20.984;2023-05-25T01:42:15;100930.48;;;13.46;91.57
54924;BME280;40825;52.270;20.984;2023-05-25T01:44:41;100927.91;;;13.46;92.85
54924;BME280;40825;52.270;20.984;2023-05-25T01:47:09;100931.09;;;13.46;93.39
54924;BME280;40825;52.270;20.984;2023-05-25T01:52:44;100932.40;;;13.44;91.29
54924;BME280;40825;52.270;20.984;2023-05-25T01:55:17;100933.40;;;13.45;91.38
54924;BME280;40825;52.270;20.984;2023-05-25T01:57:45;100933.88;;;13.45;91.97
54924;BME280;40825;52.270;20.984;2023-05-25T02:00:14;100932.50;;;13.45;92.67
54924;BME280;40825;52.270;20.984;2023-05-25T02:02:44;100930.98;;;13.44;92.56
54924;BME280;40825;52.270;20.984;2023-05-25T02:05:11;100929.88;;;13.43;92.68
54924;BME280;40825;52.270;20.984;2023-05-25T02:07:37;100930.16;;;13.42;94.39
54924;BME280;40825;52.270;20.984;2023-05-25T02:10:02;100932.95;;;13.41;94.07
54924;BME280;40825;52.270;20.984;2023-05-25T02:12:28;100930.33;;;13.41;93.07
54924;BME280;40825;52.270;20.984;2023-05-25T02:14:53;100933.73;;;13.42;93.21
54924;BME280;40825;52.270;20.984;2023-05-25T02:17:19;100934.80;;;13.44;93.22
54924;BME280;40825;52.270;20.984;2023-05-25T02:19:45;100935.61;;;13.44;93.40
54924;BME280;40825;52.270;20.984;2023-05-25T02:22:13;100933.08;;;13.45;94.30
54924;BME280;40825;52.270;20.984;2023-05-25T02:24:38;100929.89;;;13.45;92.58
54924;BME280;40825;52.270;20.984;2023-05-25T02:27:05;100932.09;;;13.44;92.14
54924;BME280;40825;52.270;20.984;2023-05-25T02:29:31;100929.58;;;13.41;91.67
54924;BME280;40825;52.270;20.984;2023-05-25T02:31:57;100933.54;;;13.42;94.09
54924;BME280;40825;52.270;20.984;2023-05-25T02:34:23;100935.06;;;13.43;94.58
54924;BME280;40825;52.270;20.984;2023-05-25T02:36:48;100942.17;;;13.45;93.70
54924;BME280;40825;52.270;20.984;2023-05-25T02:39:15;100942.38;;;13.45;94.48
54924;BME280;40825;52.270;20.984;2023-05-25T02:41:40;100941.66;;;13.45;95.33
54924;BME280;40825;52.270;20.984;2023-05-25T02:44:07;100941.32;;;13.46;92.94
54924;BME280;40825;52.270;20.984;2023-05-25T02:46:33;100948.68;;;13.51;92.55
54924;BME280;40825;52.270;20.984;2023-05-25T02:48:58;100948.96;;;13.52;93.82
54924;BME280;40825;52.270;20.984;2023-05-25T02:51:26;100952.27;;;13.52;94.36
54924;BME280;40825;52.270;20.984;2023-05-25T02:53:51;100952.90;;;13.52;95.15
54924;BME280;40825;52.270;20.984;2023-05-25T02:56:17;100950.55;;;13.53;96.01
54924;BME280;40825;52.270;20.984;2023-05-25T02:58:42;100945.46;;;13.52;94.32
54924;BME280;40825;52.270;20.984;2023-05-25T03:01:08;100941.62;;;13.50;93.36
54924;BME280;40825;52.270;20.984;2023-05-25T03:03:35;100941.54;;;13.50;94.58
54924;BME280;40825;52.270;20.984;2023-05-25T03:06:02;100948.60;;;13.50;94.76
54924;BME280;40825;52.270;20.984;2023-05-25T03:08:29;100946.73;;;13.46;95.57
54924;BME280;40825;52.270;20.984;2023-05-25T03:10:55;100952.90;;;13.45;93.69
54924;BME280;40825;52.270;20.984;2023-05-25T03:13:20;100954.63;;;13.47;94.55
54924;BME280;40825;52.270;20.984;2023-05-25T03:15:46;100961.55;;;13.49;94.38
54924;BME280;40825;52.270;20.984;2023-05-25T03:18:11;100955.42;;;13.46;93.26
54924;BME280;40825;52.270;20.984;2023-05-25T03:20:37;100959.34;;;13.46;92.96
54924;BME280;40825;52.270;20.984;2023-05-25T03:23:02;100964.90;;;13.49;93.89
54924;BME280;40825;52.270;20.984;2023-05-25T03:25:28;100970.64;;;13.51;93.66
54924;BME280;40825;52.270;20.984;2023-05-25T03:27:53;100974.77;;;13.51;94.74
54924;BME280;40825;52.270;20.984;2023-05-25T03:30:20;100977.46;;;13.53;93.54
54924;BME280;40825;52.270;20.984;2023-05-25T03:32:46;100979.09;;;13.56;95.30
54924;BME280;40825;52.270;20.984;2023-05-25T03:35:11;100984.42;;;13.56;95.36
54924;BME280;40825;52.270;20.984;2023-05-25T03:37:37;100983.27;;;13.57;93.76
54924;BME280;40825;52.270;20.984;2023-05-25T03:40:03;100988.30;;;13.57;94.12
54924;BME280;40825;52.270;20.984;2023-05-25T03:42:29;100989.53;;;13.57;94.88
54924;BME280;40825;52.270;20.984;2023-05-25T03:44:54;100985.12;;;13.56;94.15
54924;BME280;40825;52.270;20.984;2023-05-25T03:47:20;100983.11;;;13.52;95.31
54924;BME280;40825;52.270;20.984;2023-05-25T03:49:45;100979.80;;;13.49;94.65
54924;BME280;40825;52.270;20.984;2023-05-25T03:52:11;100978.05;;;13.47;95.06
54924;BME280;40825;52.270;20.984;2023-05-25T03:54:36;100972.72;;;13.47;95.39
54924;BME280;40825;52.270;20.984;2023-05-25T03:57:02;100976.80;;;13.47;96.74
54924;BME280;40825;52.270;20.984;2023-05-25T03:59:28;100976.73;;;13.49;95.74
54924;BME280;40825;52.270;20.984;2023-05-25T04:01:53;100977.50;;;13.53;95.58
54924;BME280;40825;52.270;20.984;2023-05-25T04:04:19;100981.77;;;13.56;95.18
54924;BME280;40825;52.270;20.984;2023-05-25T04:06:45;100984.52;;;13.60;93.73
54924;BME280;40825;52.270;20.984;2023-05-25T04:09:13;100988.55;;;13.62;94.78
54924;BME280;40825;52.270;20.984;2023-05-25T04:11:39;100987.84;;;13.61;94.53
54924;BME280;40825;52.270;20.984;2023-05-25T04:14:05;100989.48;;;13.61;94.64
54924;BME280;40825;52.270;20.984;2023-05-25T04:16:31;100989.20;;;13.62;94.25
54924;BME280;40825;52.270;20.984;2023-05-25T04:18:56;100991.18;;;13.62;94.35
54924;BME280;40825;52.270;20.984;2023-05-25T04:21:22;100990.92;;;13.61;94.47
54924;BME280;40825;52.270;20.984;2023-05-25T04:23:47;100993.78;;;13.63;94.95
54924;BME280;40825;52.270;20.984;2023-05-25T04:26:13;100996.13;;;13.66;94.14
54924;BME280;40825;52.270;20.984;2023-05-25T04:28:41;100997.22;;;13.70;94.38
54924;BME280;40825;52.270;20.984;2023-05-25T04:31:07;100996.74;;;13.73;94.35
54924;BME280;40825;52.270;20.984;2023-05-25T04:33:33;100999.59;;;13.76;96.08
54924;BME280;40825;52.270;20.984;2023-05-25T04:36:04;101001.10;;;13.77;95.68
54924;BME280;40825;52.270;20.984;2023-05-25T04:38:29;100997.44;;;13.78;95.78
54924;BME280;40825;52.270;20.984;2023-05-25T04:40:57;100998.27;;;13.80;96.06
54924;BME280;40825;52.270;20.984;2023-05-25T04:43:23;100997.64;;;13.86;94.73
54924;BME280;40825;52.270;20.984;2023-05-25T04:45:51;100999.84;;;13.91;94.99
54924;BME280;40825;52.270;20.984;2023-05-25T04:48:16;100997.38;;;13.92;95.13
54924;BME280;40825;52.270;20.984;2023-05-25T04:50:42;100999.51;;;13.95;94.89
54924;BME280;40825;52.270;20.984;2023-05-25T04:53:08;101000.92;;;13.98;94.88
54924;BME280;40825;52.270;20.984;2023-05-25T04:55:33;101003.70;;;13.99;95.09
54924;BME280;40825;52.270;20.984;2023-05-25T04:58:00;101008.70;;;13.99;94.98
54924;BME280;40825;52.270;20.984;2023-05-25T05:00:25;101012.66;;;14.00;94.71
54924;BME280;40825;52.270;20.984;2023-05-25T05:02:53;101017.70;;;13.98;95.30
54924;BME280;40825;52.270;20.984;2023-05-25T05:05:21;101017.10;;;13.95;95.09
54924;BME280;40825;52.270;20.984;2023-05-25T05:07:46;101019.27;;;13.93;94.55
54924;BME280;40825;52.270;20.984;2023-05-25T05:10:12;101018.04;;;13.93;94.61
54924;BME280;40825;52.270;20.984;2023-05-25T05:12:38;101016.92;;;13.93;94.18
54924;BME280;40825;52.270;20.984;2023-05-25T05:15:03;101014.42;;;13.96;94.15
54924;BME280;40825;52.270;20.984;2023-05-25T05:17:29;101012.58;;;13.98;93.84
54924;BME280;40825;52.270;20.984;2023-05-25T05:19:55;101013.98;;;13.98;94.28
54924;BME280;40825;52.270;20.984;2023-05-25T05:22:21;101017.95;;;13.98;94.05
54924;BME280;40825;52.270;20.984;2023-05-25T05:24:47;101021.52;;;13.98;93.74
54924;BME280;40825;52.270;20.984;2023-05-25T05:27:15;101022.68;;;13.98;94.47
54924;BME280;40825;52.270;20.984;2023-05-25T05:29:41;101022.60;;;14.00;94.50
54924;BME280;40825;52.270;20.984;2023-05-25T05:32:07;101027.55;;;14.04;93.74
54924;BME280;40825;52.270;20.984;2023-05-25T05:34:33;101028.35;;;14.06;93.30
54924;BME280;40825;52.270;20.984;2023-05-25T05:36:59;101029.30;;;14.07;93.45
54924;BME280;40825;52.270;20.984;2023-05-25T05:39:27;101030.92;;;14.10;93.65
54924;BME280;40825;52.270;20.984;2023-05-25T05:41:53;101030.54;;;14.14;93.92
54924;BME280;40825;52.270;20.984;2023-05-25T05:44:22;101032.75;;;14.19;93.52
54924;BME280;40825;52.270;20.984;2023-05-25T05:46:48;101032.80;;;14.23;93.35
54924;BME280;40825;52.270;20.984;2023-05-25T05:49:14;101037.48;;;14.26;93.21
54924;BME280;40825;52.270;20.984;2023-05-25T05:51:39;101041.81;;;14.25;93.39
54924;BME280;40825;52.270;20.984;2023-05-25T05:54:05;101043.96;;;14.25;93.03
54924;BME280;40825;52.270;20.984;2023-05-25T05:56:30;101041.74;;;14.28;92.93
54924;BME280;40825;52.270;20.984;2023-05-25T05:58:56;101044.55;;;14.35;92.53
54924;BME280;40825;52.270;20.984;2023-05-25T06:01:22;101048.45;;;14.31;92.55
54924;BME280;40825;52.270;20.984;2023-05-25T06:03:48;101053.98;;;14.28;92.54
54924;BME280;40825;52.270;20.984;2023-05-25T06:06:14;101055.55;;;14.30;92.70
54924;BME280;40825;52.270;20.984;2023-05-25T06:08:41;101056.89;;;14.32;92.68
54924;BME280;40825;52.270;20.984;2023-05-25T06:11:07;101057.19;;;14.34;92.86
54924;BME280;40825;52.270;20.984;2023-05-25T06:13:32;101061.59;;;14.38;92.56
54924;BME280;40825;52.270;20.984;2023-05-25T06:15:58;101062.17;;;14.41;92.90
54924;BME280;40825;52.270;20.984;2023-05-25T06:18:23;101062.63;;;14.42;92.72
54924;BME280;40825;52.270;20.984;2023-05-25T06:20:49;101068.64;;;14.44;92.44
54924;BME280;40825;52.270;20.984;2023-05-25T06:23:14;101067.59;;;14.42;92.27
54924;BME280;40825;52.270;20.984;2023-05-25T06:25:42;101069.45;;;14.40;92.64
54924;BME280;40825;52.270;20.984;2023-05-25T06:28:07;101076.86;;;14.42;92.31
54924;BME280;40825;52.270;20.984;2023-05-25T06:30:32;101079.19;;;14.45;92.24
54924;BME280;40825;52.270;20.984;2023-05-25T06:32:58;101079.81;;;14.46;91.87
54924;BME280;40825;52.270;20.984;2023-05-25T06:35:23;101081.05;;;14.49;91.95
54924;BME280;40825;52.270;20.984;2023-05-25T06:37:49;101080.63;;;14.49;92.39
54924;BME280;40825;52.270;20.984;2023-05-25T06:40:15;101085.09;;;14.52;92.39
54924;BME280;40825;52.270;20.984;2023-05-25T06:42:41;101085.01;;;14.53;92.20
54924;BME280;40825;52.270;20.984;2023-05-25T06:45:08;101086.50;;;14.56;92.00
54924;BME280;40825;52.270;20.984;2023-05-25T06:47:34;101082.83;;;14.57;92.28
54924;BME280;40825;52.270;20.984;2023-05-25T06:49:59;101085.21;;;14.55;92.41
54924;BME280;40825;52.270;20.984;2023-05-25T06:52:25;101083.38;;;14.53;92.41
54924;BME280;40825;52.270;20.984;2023-05-25T06:54:56;101082.15;;;14.52;92.28
54924;BME280;40825;52.270;20.984;2023-05-25T06:57:22;101086.77;;;14.54;92.00
54924;BME280;40825;52.270;20.984;2023-05-25T06:59:48;101089.77;;;14.56;92.68
54924;BME280;40825;52.270;20.984;2023-05-25T07:02:14;101089.25;;;14.59;92.58
54924;BME280;40825;52.270;20.984;2023-05-25T07:04:39;101084.75;;;14.64;92.05
54924;BME280;40825;52.270;20.984;2023-05-25T07:07:05;101087.99;;;14.68;91.91
54924;BME280;40825;52.270;20.984;2023-05-25T07:09:31;101087.25;;;14.74;91.89
54924;BME280;40825;52.270;20.984;2023-05-25T07:11:57;101088.05;;;14.77;91.74
54924;BME280;40825;52.270;20.984;2023-05-25T07:14:23;101086.06;;;14.76;91.69
54924;BME280;40825;52.270;20.984;2023-05-25T07:16:48;101076.77;;;14.78;91.73
54924;BME280;40825;52.270;20.984;2023-05-25T07:19:14;101077.16;;;14.81;91.63
54924;BME280;40825;52.270;20.984;2023-05-25T07:21:40;101078.67;;;14.80;91.54
54924;BME280;40825;52.270;20.984;2023-05-25T07:24:05;101075.86;;;14.80;91.27
54924;BME280;40825;52.270;20.984;2023-05-25T07:26:32;101075.83;;;14.85;91.27
54924;BME280;40825;52.270;20.984;2023-05-25T07:28:59;101076.92;;;14.91;91.47
54924;BME280;40825;52.270;20.984;2023-05-25T07:31:24;101077.88;;;14.94;91.19
54924;BME280;40825;52.270;20.984;2023-05-25T07:33:50;101075.20;;;15.00;90.82
54924;BME280;40825;52.270;20.984;2023-05-25T07:36:16;101079.73;;;15.04;90.76
54924;BME280;40825;52.270;20.984;2023-05-25T07:38:41;101081.93;;;15.13;90.54
54924;BME280;40825;52.270;20.984;2023-05-25T07:41:07;101083.08;;;15.25;90.23
54924;BME280;40825;52.270;20.984;2023-05-25T07:43:32;101085.51;;;15.32;89.98
54924;BME280;40825;52.270;20.984;2023-05-25T07:45:59;101084.74;;;15.35;90.08
54924;BME280;40825;52.270;20.984;2023-05-25T07:48:27;101082.50;;;15.43;90.28
54924;BME280;40825;52.270;20.984;2023-05-25T07:50:52;101082.30;;;15.53;90.09
54924;BME280;40825;52.270;20.984;2023-05-25T07:53:18;101078.48;;;15.61;88.96
54924;BME280;40825;52.270;20.984;2023-05-25T07:55:44;101080.09;;;15.64;88.84
54924;BME280;40825;52.270;20.984;2023-05-25T07:58:09;101076.56;;;15.76;88.86
54924;BME280;40825;52.270;20.984;2023-05-25T08:00:35;101077.35;;;15.89;88.56
54924;BME280;40825;52.270;20.984;2023-05-25T08:03:01;101079.58;;;16.02;88.49
54924;BME280;40825;52.270;20.984;2023-05-25T08:05:27;101081.45;;;16.16;88.00
54924;BME280;40825;52.270;20.984;2023-05-25T08:07:53;101084.09;;;16.32;87.74
54924;BME280;40825;52.270;20.984;2023-05-25T08:10:19;101088.15;;;16.46;86.48
54924;BME280;40825;52.270;20.984;2023-05-25T08:12:45;101087.82;;;16.57;86.32
54924;BME280;40825;52.270;20.984;2023-05-25T08:15:10;101086.95;;;16.65;86.69
54924;BME280;40825;52.270;20.984;2023-05-25T08:17:38;101085.88;;;16.70;85.45
54924;BME280;40825;52.270;20.984;2023-05-25T08:20:05;101084.32;;;16.76;85.23
54924;BME280;40825;52.270;20.984;2023-05-25T08:22:32;101082.70;;;16.85;84.70
54924;BME280;40825;52.270;20.984;2023-05-25T08:24:58;101077.07;;;16.91;83.75
54924;BME280;40825;52.270;20.984;2023-05-25T08:27:23;101077.70;;;16.96;83.65
54924;BME280;40825;52.270;20.984;2023-05-25T08:29:49;101078.94;;;17.01;82.45
54924;BME280;40825;52.270;20.984;2023-05-25T08:32:14;101083.23;;;17.02;82.19
54924;BME280;40825;52.270;20.984;2023-05-25T08:34:40;101084.84;;;17.13;82.85
54924;BME280;40825;52.270;20.984;2023-05-25T08:37:05;101083.84;;;17.19;82.27
54924;BME280;40825;52.270;20.984;2023-05-25T08:39:31;101086.59;;;17.30;82.52
54924;BME280;40825;52.270;20.984;2023-05-25T08:41:56;101081.39;;;17.43;81.74
54924;BME280;40825;52.270;20.984;2023-05-25T08:44:22;101085.38;;;17.58;82.39
54924;BME280;40825;52.270;20.984;2023-05-25T08:46:48;101081.73;;;17.78;82.55
54924;BME280;40825;52.270;20.984;2023-05-25T08:49:14;101082.98;;;18.01;82.04
54924;BME280;40825;52.270;20.984;2023-05-25T08:51:50;101080.44;;;18.15;78.67
54924;BME280;40825;52.270;20.984;2023-05-25T08:54:21;101078.44;;;18.27;78.36
54924;BME280;40825;52.270;20.984;2023-05-25T09:02:34;101074.30;;;19.48;76.52
54924;BME280;40825;52.270;20.984;2023-05-25T09:05:03;101075.48;;;20.13;77.97
54924;BME280;40825;52.270;20.984;2023-05-25T09:07:30;101073.37;;;20.70;71.82
54924;BME280;40825;52.270;20.984;2023-05-25T09:09:57;101077.64;;;21.01;70.12
54924;BME280;40825;52.270;20.984;2023-05-25T09:12:23;101077.84;;;21.10;68.06
54924;BME280;40825;52.270;20.984;2023-05-25T09:14:49;101082.29;;;21.26;66.54
54924;BME280;40825;52.270;20.984;2023-05-25T09:17:15;101079.33;;;21.66;66.49
54924;BME280;40825;52.270;20.984;2023-05-25T09:19:42;101079.10;;;22.07;63.48
54924;BME280;40825;52.270;20.984;2023-05-25T09:22:08;101080.23;;;22.23;62.39
54924;BME280;40825;52.270;20.984;2023-05-25T09:24:37;101079.06;;;22.34;65.08
54924;BME280;40825;52.270;20.984;2023-05-25T09:27:08;101080.70;;;22.21;61.99
54924;BME280;40825;52.270;20.984;2023-05-25T09:29:35;101079.27;;;22.19;62.24
54924;BME280;40825;52.270;20.984;2023-05-25T09:32:04;101080.88;;;22.27;62.08
54924;BME280;40825;52.270;20.984;2023-05-25T09:34:31;101081.56;;;22.31;62.81
54924;BME280;40825;52.270;20.984;2023-05-25T09:36:58;101084.80;;;22.23;60.79
54924;BME280;40825;52.270;20.984;2023-05-25T09:39:24;101087.63;;;22.10;61.43
54924;BME280;40825;52.270;20.984;2023-05-25T09:41:50;101086.44;;;22.10;61.31
54924;BME280;40825;52.270;20.984;2023-05-25T09:44:15;101086.45;;;22.25;62.41
54924;BME280;40825;52.270;20.984;2023-05-25T09:46:40;101088.96;;;22.35;61.40
54924;BME280;40825;52.270;20.984;2023-05-25T09:49:08;101090.45;;;22.48;61.21
54924;BME280;40825;52.270;20.984;2023-05-25T09:51:37;101086.85;;;22.62;62.66
54924;BME280;40825;52.270;20.984;2023-05-25T09:54:04;101084.29;;;22.92;60.42
54924;BME280;40825;52.270;20.984;2023-05-25T09:56:33;101087.25;;;23.13;60.75
54924;BME280;40825;52.270;20.984;2023-05-25T09:58:59;101088.35;;;23.40;60.96
54924;BME280;40825;52.270;20.984;2023-05-25T10:01:25;101087.14;;;23.51;58.84
54924;BME280;40825;52.270;20.984;2023-05-25T10:03:54;101092.42;;;23.35;60.00
54924;BME280;40825;52.270;20.984;2023-05-25T10:06:24;101091.97;;;23.17;59.90
54924;BME280;40825;52.270;20.984;2023-05-25T10:08:51;101089.91;;;23.06;58.43
54924;BME280;40825;52.270;20.984;2023-05-25T10:11:20;101094.44;;;22.84;58.57
54924;BME280;40825;52.270;20.984;2023-05-25T10:13:46;101094.38;;;22.57;58.92
54924;BME280;40825;52.270;20.984;2023-05-25T10:16:15;101098.23;;;22.48;60.34
54924;BME280;40825;52.270;20.984;2023-05-25T10:18:48;101095.47;;;22.23;59.57
54924;BME280;40825;52.270;20.984;2023-05-25T10:21:17;101097.08;;;21.96;60.42
54924;BME280;40825;52.270;20.984;2023-05-25T10:23:44;101097.77;;;21.69;60.88
54924;BME280;40825;52.270;20.984;2023-05-25T10:26:18;101096.05;;;21.44;61.99
54924;BME280;40825;52.270;20.984;2023-05-25T10:28:47;101098.38;;;21.20;62.31
54924;BME280;40825;52.270;20.984;2023-05-25T10:31:15;101101.09;;;21.00;62.66
54924;BME280;40825;52.270;20.984;2023-05-25T10:33:42;101103.98;;;20.87;63.43
54924;BME280;40825;52.270;20.984;2023-05-25T10:36:09;101103.60;;;20.70;63.80
54924;BME280;40825;52.270;20.984;2023-05-25T10:38:41;101101.29;;;20.44;63.97
54924;BME280;40825;52.270;20.984;2023-05-25T10:41:10;101098.39;;;20.17;64.51
54924;BME280;40825;52.270;20.984;2023-05-25T10:43:37;101092.81;;;19.95;65.16
54924;BME280;40825;52.270;20.984;2023-05-25T10:46:06;101092.27;;;19.78;66.15
54924;BME280;40825;52.270;20.984;2023-05-25T10:48:38;101094.11;;;19.64;66.22
54924;BME280;40825;52.270;20.984;2023-05-25T10:51:05;101089.52;;;19.52;66.69
54924;BME280;40825;52.270;20.984;2023-05-25T10:53:31;101088.89;;;19.43;66.32
54924;BME280;40825;52.270;20.984;2023-05-25T10:56:01;101089.42;;;19.35;66.04
54924;BME280;40825;52.270;20.984;2023-05-25T10:58:28;101090.05;;;19.36;66.64
54924;BME280;40825;52.270;20.984;2023-05-25T11:01:07;101088.89;;;19.36;66.72
54924;BME280;40825;52.270;20.984;2023-05-25T11:06:19;101086.01;;;19.22;66.38
54924;BME280;40825;52.270;20.984;2023-05-25T11:08:55;101085.07;;;19.19;66.70
54924;BME280;40825;52.270;20.984;2023-05-25T11:11:25;101086.92;;;19.17;67.06
54924;BME280;40825;52.270;20.984;2023-05-25T11:19:51;101081.00;;;19.28;67.46
54924;BME280;40825;52.270;20.984;2023-05-25T11:22:19;101079.80;;;19.36;67.63
54924;BME280;40825;52.270;20.984;2023-05-25T11:24:46;101079.37;;;19.47;67.27
54924;BME280;40825;52.270;20.984;2023-05-25T11:27:12;101080.34;;;19.59;67.46
54924;BME280;40825;52.270;20.984;2023-05-25T11:29:38;101080.89;;;19.73;67.53
54924;BME280;40825;52.270;20.984;2023-05-25T11:32:11;101075.95;;;19.90;67.71
54924;BME280;40825;52.270;20.984;2023-05-25T11:34:40;101079.00;;;20.07;67.97
54924;BME280;40825;52.270;20.984;2023-05-25T11:37:18;101077.45;;;20.29;67.55
54924;BME280;40825;52.270;20.984;2023-05-25T11:39:50;101075.75;;;20.50;67.37
54924;BME280;40825;52.270;20.984;2023-05-25T11:42:18;101069.98;;;20.70;67.23
54924;BME280;40825;52.270;20.984;2023-05-25T11:44:44;101069.16;;;20.82;66.84
54924;BME280;40825;52.270;20.984;2023-05-25T11:47:10;101066.05;;;20.96;66.96
54924;BME280;40825;52.270;20.984;2023-05-25T11:49:39;101067.93;;;21.14;66.96
54924;BME280;40825;52.270;20.984;2023-05-25T11:52:18;101063.85;;;21.28;66.99
54924;BME280;40825;52.270;20.984;2023-05-25T11:54:44;101059.79;;;21.42;65.84
54924;BME280;40825;52.270;20.984;2023-05-25T11:57:18;101064.92;;;21.58;65.68
54924;BME280;40825;52.270;20.984;2023-05-25T11:59:51;101066.89;;;21.77;66.00
54924;BME280;40825;52.270;20.984;2023-05-25T12:02:17;101057.45;;;21.89;64.74
54924;BME280;40825;52.270;20.984;2023-05-25T12:07:23;101052.96;;;22.04;63.42
54924;BME280;40825;52.270;20.984;2023-05-25T12:09:50;101047.23;;;22.07;64.36
54924;BME280;40825;52.270;20.984;2023-05-25T12:12:16;101044.20;;;22.12;64.83
54924;BME280;40825;52.270;20.984;2023-05-25T12:14:50;101044.05;;;22.17;64.51
54924;BME280;40825;52.270;20.984;2023-05-25T12:17:17;101040.61;;;22.20;64.17
54924;BME280;40825;52.270;20.984;2023-05-25T12:19:43;101038.27;;;22.22;64.31
54924;BME280;40825;52.270;20.984;2023-05-25T12:22:10;101036.66;;;22.22;63.89
54924;BME280;40825;52.270;20.984;2023-05-25T12:24:36;101035.98;;;22.24;63.68
54924;BME280;40825;52.270;20.984;2023-05-25T12:27:02;101037.45;;;22.25;63.83
54924;BME280;40825;52.270;20.984;2023-05-25T12:29:30;101033.87;;;22.26;64.07
54924;BME280;40825;52.270;20.984;2023-05-25T12:32:03;101031.08;;;22.29;63.86
54924;BME280;40825;52.270;20.984;2023-05-25T12:34:29;101028.35;;;22.32;63.59
54924;BME280;40825;52.270;20.984;2023-05-25T12:36:55;101024.27;;;22.28;62.65
54924;BME280;40825;52.270;20.984;2023-05-25T12:41:56;101022.64;;;22.29;63.60
54924;BME280;40825;52.270;20.984;2023-05-25T12:44:26;101018.05;;;22.31;62.44
54924;BME280;40825;52.270;20.984;2023-05-25T12:46:54;101015.42;;;22.21;62.52
54924;BME280;40825;52.270;20.984;2023-05-25T12:49:32;101010.93;;;22.22;63.59
54924;BME280;40825;52.270;20.984;2023-05-25T12:52:00;101006.64;;;22.28;63.45
54924;BME280;40825;52.270;20.984;2023-05-25T12:54:45;101000.13;;;22.30;63.32
54924;BME280;40825;52.270;20.984;2023-05-25T12:57:13;100997.48;;;22.35;63.62
54924;BME280;40825;52.270;20.984;2023-05-25T12:59:44;100996.61;;;22.36;63.24
54924;BME280;40825;52.270;20.984;2023-05-25T13:02:11;100990.87;;;22.33;61.95
54924;BME280;40825;52.270;20.984;2023-05-25T13:04:38;100990.97;;;22.38;62.21